Siegenburg, Germany

2:51 AM CEST on May 07, 2015 (GMT +0200)
Hallertau | | Change Station
CLOSE
Current Station
Personal Weather Station
Location: Wolnzach, BAYERN
Elevation: 1375 ft
Nearby Weather Stations

Elev 1375 ft 48.63 °N, 11.64 °E | Updated 1 second ago

Partly Cloudy
Partly Cloudy
46.8 °F
Feels Like 47 °F
N
0.0
Wind Variable Wind from ENE
Gusts 0.0 mph

Today
High -- | Low -- °F
--% Chance of Precip.
Yesterday
High -- | Low -- °F
Precip. -- in
5:43 AM 8:35 PM
Waning Gibbous, 91% visible
Pressure 30.09 in
Visibility 1.4 miles
Clouds
Windchill 47 °F
Dew Point 47 °F
Humidity 99%
Rainfall 0.00 in
Snow Depth Not available.
UV 0.0 out of 12
Pollen Not available.
Air Quality Not available.
Flu Activity Not available.
METAR ETSI 070020Z AUTO 20001KT 2200 // ////// 08/08 Q1019 ///

More Conditions Fewer Conditions

Pressure 30.09 in
Visibility 1.4 miles
Clouds
Windchill 47 °F
Dew Point 47 °F
Humidity 99%
Rainfall 0.00 in
Snow Depth Not available.
UV 0.0 out of 12
Pollen Not available.
Air Quality Not available.
Flu Activity Not available.
METAR ETSI 070020Z AUTO 20001KT 2200 // ////// 08/08 Q1019 ///

More Conditions Fewer Conditions

10-Day Weather Forecast

Almanac

Astronomy

May. 07, 2015 Rise Set
Actual Time
Civil Twilight
Nautical Twilight
Astronomical Twilight
Moon
Length of Visible Light
Length of Day
Tomorrow will be .
, % of the Moon is Illuminated

Today's Extremes

Country Highs Country Lows

Community

WunderPhotos

Upload Photos

1,819,061 photos uploaded!

WunderBlogs® & News

Nearby

Air Quality

  Air Quality AQ Index Pollutant
Not available.

Snow Depth

Station Depth Elevation

Earthquake Activity

City Distance Mag. Time & Date
Minimum magnitude displayed is 2.5.

Coastal Water Temperatures

Place Temperature

Stations

Nearby Weather Stations

Station Location Temp. Windchill Dew Point Humidity Wind Precip. Elev Updated Type